sensor_id;sensor_type;location;lat;lon;timestamp;P1;durP1;ratioP1;P2;durP2;ratioP2
47523;SDS011;33253;42.144;25.884;2022-09-29T00:01:46;5.78;;;2.40;;
47523;SDS011;33253;42.144;25.884;2022-09-29T00:04:13;5.47;;;2.08;;
47523;SDS011;33253;42.144;25.884;2022-09-29T00:06:38;5.70;;;2.20;;
47523;SDS011;33253;42.144;25.884;2022-09-29T00:09:04;3.95;;;1.92;;
47523;SDS011;33253;42.144;25.884;2022-09-29T00:11:29;4.07;;;2.05;;
47523;SDS011;33253;42.144;25.884;2022-09-29T00:13:55;6.10;;;2.17;;
47523;SDS011;33253;42.144;25.884;2022-09-29T00:16:20;6.05;;;2.00;;
47523;SDS011;33253;42.144;25.884;2022-09-29T00:18:46;8.27;;;2.42;;
47523;SDS011;33253;42.144;25.884;2022-09-29T00:21:12;6.90;;;2.47;;
47523;SDS011;33253;42.144;25.884;2022-09-29T00:23:40;9.65;;;2.65;;
47523;SDS011;33253;42.144;25.884;2022-09-29T00:28:34;5.55;;;2.22;;
47523;SDS011;33253;42.144;25.884;2022-09-29T00:31:00;3.92;;;2.42;;
47523;SDS011;33253;42.144;25.884;2022-09-29T00:33:28;6.18;;;2.58;;
47523;SDS011;33253;42.144;25.884;2022-09-29T00:35:55;5.38;;;2.03;;
47523;SDS011;33253;42.144;25.884;2022-09-29T00:38:23;5.68;;;2.60;;
47523;SDS011;33253;42.144;25.884;2022-09-29T00:40:48;4.88;;;2.30;;
47523;SDS011;33253;42.144;25.884;2022-09-29T00:43:18;4.47;;;2.50;;
47523;SDS011;33253;42.144;25.884;2022-09-29T00:45:46;5.63;;;2.60;;
47523;SDS011;33253;42.144;25.884;2022-09-29T00:48:13;6.15;;;2.25;;
47523;SDS011;33253;42.144;25.884;2022-09-29T00:50:47;5.68;;;2.50;;
47523;SDS011;33253;42.144;25.884;2022-09-29T00:53:16;6.40;;;2.72;;
47523;SDS011;33253;42.144;25.884;2022-09-29T00:56:06;6.00;;;2.58;;
47523;SDS011;33253;42.144;25.884;2022-09-29T01:01:00;4.80;;;2.70;;
47523;SDS011;33253;42.144;25.884;2022-09-29T01:03:28;5.47;;;2.60;;
47523;SDS011;33253;42.144;25.884;2022-09-29T01:05:58;5.05;;;2.33;;
47523;SDS011;33253;42.144;25.884;2022-09-29T01:08:28;4.05;;;2.60;;
47523;SDS011;33253;42.144;25.884;2022-09-29T01:11:00;3.60;;;2.53;;
47523;SDS011;33253;42.144;25.884;2022-09-29T01:13:26;5.53;;;2.75;;
47523;SDS011;33253;42.144;25.884;2022-09-29T01:15:53;5.85;;;2.70;;
47523;SDS011;33253;42.144;25.884;2022-09-29T01:18:19;5.38;;;2.40;;
47523;SDS011;33253;42.144;25.884;2022-09-29T01:20:50;6.90;;;2.80;;
47523;SDS011;33253;42.144;25.884;2022-09-29T01:32:09;6.70;;;3.05;;
47523;SDS011;33253;42.144;25.884;2022-09-29T01:43:31;7.72;;;3.63;;
47523;SDS011;33253;42.144;25.884;2022-09-29T01:46:08;6.53;;;3.70;;
47523;SDS011;33253;42.144;25.884;2022-09-29T01:48:41;6.88;;;3.50;;
47523;SDS011;33253;42.144;25.884;2022-09-29T01:51:14;7.95;;;3.40;;
47523;SDS011;33253;42.144;25.884;2022-09-29T01:53:50;6.63;;;2.90;;
47523;SDS011;33253;42.144;25.884;2022-09-29T01:56:39;6.57;;;3.05;;
47523;SDS011;33253;42.144;25.884;2022-09-29T01:59:31;10.00;;;3.33;;
47523;SDS011;33253;42.144;25.884;2022-09-29T02:02:03;7.82;;;3.22;;
47523;SDS011;33253;42.144;25.884;2022-09-29T02:04:39;3.40;;;2.80;;
47523;SDS011;33253;42.144;25.884;2022-09-29T02:07:13;6.43;;;3.70;;
47523;SDS011;33253;42.144;25.884;2022-09-29T02:09:45;6.22;;;3.55;;
47523;SDS011;33253;42.144;25.884;2022-09-29T02:12:16;7.35;;;3.58;;
47523;SDS011;33253;42.144;25.884;2022-09-29T02:14:48;7.22;;;3.50;;
47523;SDS011;33253;42.144;25.884;2022-09-29T02:17:32;7.93;;;3.28;;
47523;SDS011;33253;42.144;25.884;2022-09-29T02:20:02;5.35;;;3.08;;
47523;SDS011;33253;42.144;25.884;2022-09-29T02:22:29;6.07;;;3.15;;
47523;SDS011;33253;42.144;25.884;2022-09-29T02:24:57;5.20;;;2.90;;
47523;SDS011;33253;42.144;25.884;2022-09-29T02:27:23;8.80;;;3.83;;
47523;SDS011;33253;42.144;25.884;2022-09-29T02:29:51;5.80;;;3.22;;
47523;SDS011;33253;42.144;25.884;2022-09-29T02:32:17;9.93;;;3.13;;
47523;SDS011;33253;42.144;25.884;2022-09-29T02:34:43;8.70;;;3.20;;
47523;SDS011;33253;42.144;25.884;2022-09-29T02:51:50;5.47;;;2.80;;
47523;SDS011;33253;42.144;25.884;2022-09-29T02:56:59;5.90;;;2.95;;
47523;SDS011;33253;42.144;25.884;2022-09-29T02:59:37;7.65;;;3.30;;
47523;SDS011;33253;42.144;25.884;2022-09-29T03:02:21;8.00;;;3.28;;
47523;SDS011;33253;42.144;25.884;2022-09-29T03:04:48;9.30;;;3.45;;
47523;SDS011;33253;42.144;25.884;2022-09-29T03:07:14;4.22;;;2.78;;
47523;SDS011;33253;42.144;25.884;2022-09-29T03:09:39;9.73;;;3.30;;
47523;SDS011;33253;42.144;25.884;2022-09-29T03:12:05;6.13;;;2.78;;
47523;SDS011;33253;42.144;25.884;2022-09-29T03:14:30;9.18;;;2.80;;
47523;SDS011;33253;42.144;25.884;2022-09-29T03:16:56;5.68;;;2.83;;
47523;SDS011;33253;42.144;25.884;2022-09-29T03:19:21;6.60;;;2.95;;
47523;SDS011;33253;42.144;25.884;2022-09-29T03:21:46;10.90;;;3.63;;
47523;SDS011;33253;42.144;25.884;2022-09-29T03:24:12;10.25;;;3.00;;
47523;SDS011;33253;42.144;25.884;2022-09-29T03:26:37;6.30;;;3.08;;
47523;SDS011;33253;42.144;25.884;2022-09-29T03:29:03;7.40;;;2.75;;
47523;SDS011;33253;42.144;25.884;2022-09-29T03:31:28;7.32;;;2.95;;
47523;SDS011;33253;42.144;25.884;2022-09-29T03:33:54;8.63;;;3.30;;
47523;SDS011;33253;42.144;25.884;2022-09-29T03:36:19;8.63;;;2.80;;
47523;SDS011;33253;42.144;25.884;2022-09-29T03:38:45;8.57;;;2.70;;
47523;SDS011;33253;42.144;25.884;2022-09-29T03:41:11;5.97;;;2.90;;
47523;SDS011;33253;42.144;25.884;2022-09-29T03:43:36;6.35;;;3.13;;
47523;SDS011;33253;42.144;25.884;2022-09-29T03:46:02;8.07;;;3.20;;
47523;SDS011;33253;42.144;25.884;2022-09-29T03:48:29;9.40;;;3.67;;
47523;SDS011;33253;42.144;25.884;2022-09-29T03:50:55;7.68;;;3.15;;
47523;SDS011;33253;42.144;25.884;2022-09-29T03:53:21;5.13;;;3.17;;
47523;SDS011;33253;42.144;25.884;2022-09-29T03:55:47;6.88;;;3.55;;
47523;SDS011;33253;42.144;25.884;2022-09-29T03:58:14;7.32;;;3.55;;
47523;SDS011;33253;42.144;25.884;2022-09-29T04:00:40;7.18;;;3.90;;
47523;SDS011;33253;42.144;25.884;2022-09-29T04:03:05;6.95;;;3.10;;
47523;SDS011;33253;42.144;25.884;2022-09-29T04:05:31;9.10;;;3.55;;
47523;SDS011;33253;42.144;25.884;2022-09-29T04:07:57;12.45;;;3.65;;
47523;SDS011;33253;42.144;25.884;2022-09-29T04:10:22;8.50;;;3.92;;
47523;SDS011;33253;42.144;25.884;2022-09-29T04:12:48;11.38;;;4.13;;
47523;SDS011;33253;42.144;25.884;2022-09-29T04:15:13;8.95;;;3.40;;
47523;SDS011;33253;42.144;25.884;2022-09-29T04:17:39;10.32;;;3.90;;
47523;SDS011;33253;42.144;25.884;2022-09-29T04:20:04;6.57;;;2.72;;
47523;SDS011;33253;42.144;25.884;2022-09-29T04:22:31;10.32;;;3.67;;
47523;SDS011;33253;42.144;25.884;2022-09-29T04:24:57;7.60;;;3.90;;
47523;SDS011;33253;42.144;25.884;2022-09-29T04:27:23;11.25;;;3.78;;
47523;SDS011;33253;42.144;25.884;2022-09-29T04:29:49;12.25;;;3.88;;
47523;SDS011;33253;42.144;25.884;2022-09-29T04:32:15;12.02;;;3.60;;
47523;SDS011;33253;42.144;25.884;2022-09-29T04:35:01;11.73;;;3.50;;
47523;SDS011;33253;42.144;25.884;2022-09-29T04:37:27;6.72;;;4.03;;
47523;SDS011;33253;42.144;25.884;2022-09-29T04:39:52;11.55;;;3.90;;
47523;SDS011;33253;42.144;25.884;2022-09-29T04:42:18;9.85;;;3.90;;
47523;SDS011;33253;42.144;25.884;2022-09-29T04:44:46;8.75;;;3.60;;
47523;SDS011;33253;42.144;25.884;2022-09-29T04:47:11;10.45;;;3.50;;
47523;SDS011;33253;42.144;25.884;2022-09-29T04:49:38;7.35;;;3.30;;
47523;SDS011;33253;42.144;25.884;2022-09-29T04:52:04;16.27;;;3.45;;
47523;SDS011;33253;42.144;25.884;2022-09-29T04:54:30;7.80;;;3.35;;
47523;SDS011;33253;42.144;25.884;2022-09-29T04:56:56;9.27;;;3.38;;
47523;SDS011;33253;42.144;25.884;2022-09-29T04:59:22;10.85;;;3.30;;
47523;SDS011;33253;42.144;25.884;2022-09-29T05:01:48;9.05;;;3.30;;
47523;SDS011;33253;42.144;25.884;2022-09-29T05:04:13;11.77;;;3.47;;
47523;SDS011;33253;42.144;25.884;2022-09-29T05:06:39;10.60;;;3.38;;
47523;SDS011;33253;42.144;25.884;2022-09-29T05:09:05;8.25;;;3.65;;
47523;SDS011;33253;42.144;25.884;2022-09-29T05:11:31;9.95;;;3.42;;
47523;SDS011;33253;42.144;25.884;2022-09-29T05:13:57;8.63;;;3.33;;
47523;SDS011;33253;42.144;25.884;2022-09-29T05:16:23;8.40;;;3.20;;
47523;SDS011;33253;42.144;25.884;2022-09-29T05:18:49;10.13;;;3.28;;
47523;SDS011;33253;42.144;25.884;2022-09-29T05:21:15;9.18;;;3.63;;
47523;SDS011;33253;42.144;25.884;2022-09-29T05:23:40;8.00;;;2.95;;
47523;SDS011;33253;42.144;25.884;2022-09-29T05:26:06;6.53;;;3.28;;
47523;SDS011;33253;42.144;25.884;2022-09-29T05:28:35;10.77;;;4.07;;
47523;SDS011;33253;42.144;25.884;2022-09-29T05:31:02;9.20;;;3.55;;
47523;SDS011;33253;42.144;25.884;2022-09-29T05:33:33;7.38;;;3.22;;
47523;SDS011;33253;42.144;25.884;2022-09-29T05:35:59;12.55;;;3.13;;
47523;SDS011;33253;42.144;25.884;2022-09-29T05:38:25;10.80;;;3.33;;
47523;SDS011;33253;42.144;25.884;2022-09-29T05:40:52;8.88;;;3.58;;
47523;SDS011;33253;42.144;25.884;2022-09-29T05:43:18;5.45;;;2.90;;
47523;SDS011;33253;42.144;25.884;2022-09-29T05:45:44;8.63;;;3.47;;
47523;SDS011;33253;42.144;25.884;2022-09-29T05:48:10;7.63;;;3.15;;
47523;SDS011;33253;42.144;25.884;2022-09-29T05:50:35;6.95;;;2.92;;
47523;SDS011;33253;42.144;25.884;2022-09-29T05:53:07;6.32;;;2.88;;
47523;SDS011;33253;42.144;25.884;2022-09-29T05:55:37;5.00;;;2.80;;
47523;SDS011;33253;42.144;25.884;2022-09-29T05:58:03;5.15;;;2.80;;
47523;SDS011;33253;42.144;25.884;2022-09-29T06:00:29;5.95;;;3.08;;
47523;SDS011;33253;42.144;25.884;2022-09-29T06:02:59;7.43;;;3.50;;
47523;SDS011;33253;42.144;25.884;2022-09-29T06:05:25;5.47;;;3.00;;
47523;SDS011;33253;42.144;25.884;2022-09-29T06:07:51;5.15;;;2.88;;
47523;SDS011;33253;42.144;25.884;2022-09-29T06:10:17;9.90;;;3.67;;
47523;SDS011;33253;42.144;25.884;2022-09-29T06:12:43;7.50;;;2.97;;
47523;SDS011;33253;42.144;25.884;2022-09-29T06:15:09;6.88;;;2.75;;
47523;SDS011;33253;42.144;25.884;2022-09-29T06:17:38;16.50;;;4.93;;
47523;SDS011;33253;42.144;25.884;2022-09-29T06:20:03;5.95;;;3.10;;
47523;SDS011;33253;42.144;25.884;2022-09-29T06:22:31;7.07;;;3.20;;
47523;SDS011;33253;42.144;25.884;2022-09-29T06:24:56;6.82;;;3.03;;
47523;SDS011;33253;42.144;25.884;2022-09-29T06:27:22;7.35;;;2.60;;
47523;SDS011;33253;42.144;25.884;2022-09-29T06:29:47;5.40;;;3.00;;
47523;SDS011;33253;42.144;25.884;2022-09-29T06:32:13;9.23;;;3.38;;
47523;SDS011;33253;42.144;25.884;2022-09-29T06:34:38;8.43;;;2.80;;
47523;SDS011;33253;42.144;25.884;2022-09-29T06:37:24;7.22;;;3.22;;
47523;SDS011;33253;42.144;25.884;2022-09-29T06:39:59;5.43;;;3.05;;
47523;SDS011;33253;42.144;25.884;2022-09-29T06:42:24;5.65;;;3.03;;
47523;SDS011;33253;42.144;25.884;2022-09-29T06:44:50;6.45;;;2.83;;
47523;SDS011;33253;42.144;25.884;2022-09-29T06:47:15;9.40;;;3.00;;
47523;SDS011;33253;42.144;25.884;2022-09-29T06:49:41;9.95;;;3.50;;
47523;SDS011;33253;42.144;25.884;2022-09-29T06:52:07;8.55;;;3.50;;
47523;SDS011;33253;42.144;25.884;2022-09-29T06:54:32;11.77;;;3.42;;
47523;SDS011;33253;42.144;25.884;2022-09-29T06:56:58;9.70;;;3.58;;
47523;SDS011;33253;42.144;25.884;2022-09-29T06:59:24;9.15;;;3.78;;
47523;SDS011;33253;42.144;25.884;2022-09-29T07:01:50;11.13;;;3.78;;
47523;SDS011;33253;42.144;25.884;2022-09-29T07:04:18;14.23;;;3.97;;
47523;SDS011;33253;42.144;25.884;2022-09-29T07:06:44;8.77;;;3.55;;
47523;SDS011;33253;42.144;25.884;2022-09-29T07:09:10;11.52;;;3.83;;
47523;SDS011;33253;42.144;25.884;2022-09-29T07:11:39;8.65;;;3.80;;
47523;SDS011;33253;42.144;25.884;2022-09-29T07:14:05;13.40;;;4.35;;
47523;SDS011;33253;42.144;25.884;2022-09-29T07:16:32;16.83;;;4.05;;
47523;SDS011;33253;42.144;25.884;2022-09-29T07:18:57;11.90;;;4.00;;
47523;SDS011;33253;42.144;25.884;2022-09-29T07:21:22;8.75;;;3.95;;
47523;SDS011;33253;42.144;25.884;2022-09-29T07:23:48;10.85;;;4.00;;
47523;SDS011;33253;42.144;25.884;2022-09-29T07:26:14;19.25;;;4.90;;
47523;SDS011;33253;42.144;25.884;2022-09-29T07:28:41;12.52;;;3.95;;
47523;SDS011;33253;42.144;25.884;2022-09-29T07:31:11;18.65;;;4.20;;
47523;SDS011;33253;42.144;25.884;2022-09-29T07:33:44;15.63;;;4.25;;
47523;SDS011;33253;42.144;25.884;2022-09-29T07:36:12;11.68;;;4.07;;
47523;SDS011;33253;42.144;25.884;2022-09-29T07:38:38;13.82;;;4.03;;
47523;SDS011;33253;42.144;25.884;2022-09-29T07:41:05;14.57;;;4.18;;
47523;SDS011;33253;42.144;25.884;2022-09-29T07:43:32;10.77;;;3.80;;
47523;SDS011;33253;42.144;25.884;2022-09-29T07:45:58;13.10;;;4.63;;
47523;SDS011;33253;42.144;25.884;2022-09-29T07:48:24;9.93;;;4.30;;
47523;SDS011;33253;42.144;25.884;2022-09-29T07:50:50;9.68;;;3.40;;
47523;SDS011;33253;42.144;25.884;2022-09-29T07:53:16;10.38;;;3.50;;
47523;SDS011;33253;42.144;25.884;2022-09-29T07:55:42;8.68;;;3.60;;
47523;SDS011;33253;42.144;25.884;2022-09-29T07:58:08;8.63;;;3.20;;
47523;SDS011;33253;42.144;25.884;2022-09-29T08:00:34;8.68;;;3.58;;
47523;SDS011;33253;42.144;25.884;2022-09-29T08:03:03;12.73;;;4.65;;
47523;SDS011;33253;42.144;25.884;2022-09-29T08:05:31;8.60;;;3.55;;
47523;SDS011;33253;42.144;25.884;2022-09-29T08:07:58;8.35;;;3.85;;
47523;SDS011;33253;42.144;25.884;2022-09-29T08:10:25;11.77;;;4.22;;
47523;SDS011;33253;42.144;25.884;2022-09-29T08:12:51;7.45;;;3.53;;
47523;SDS011;33253;42.144;25.884;2022-09-29T08:15:17;10.77;;;4.25;;
47523;SDS011;33253;42.144;25.884;2022-09-29T08:17:42;12.02;;;3.50;;
47523;SDS011;33253;42.144;25.884;2022-09-29T08:20:08;11.50;;;3.80;;
47523;SDS011;33253;42.144;25.884;2022-09-29T08:22:33;9.90;;;3.80;;
47523;SDS011;33253;42.144;25.884;2022-09-29T08:24:59;10.27;;;3.90;;
47523;SDS011;33253;42.144;25.884;2022-09-29T08:27:25;9.98;;;3.97;;
47523;SDS011;33253;42.144;25.884;2022-09-29T08:29:50;7.72;;;3.40;;
47523;SDS011;33253;42.144;25.884;2022-09-29T08:32:15;7.05;;;3.70;;
47523;SDS011;33253;42.144;25.884;2022-09-29T08:34:41;8.20;;;3.33;;
47523;SDS011;33253;42.144;25.884;2022-09-29T08:37:06;9.85;;;3.58;;
47523;SDS011;33253;42.144;25.884;2022-09-29T08:39:32;9.40;;;3.20;;
47523;SDS011;33253;42.144;25.884;2022-09-29T08:42:17;8.65;;;3.50;;
47523;SDS011;33253;42.144;25.884;2022-09-29T08:45:00;8.85;;;3.45;;
47523;SDS011;33253;42.144;25.884;2022-09-29T08:47:31;6.80;;;2.72;;
47523;SDS011;33253;42.144;25.884;2022-09-29T08:52:51;9.40;;;3.47;;
47523;SDS011;33253;42.144;25.884;2022-09-29T08:55:34;9.60;;;3.78;;
47523;SDS011;33253;42.144;25.884;2022-09-29T08:58:12;10.10;;;3.83;;
47523;SDS011;33253;42.144;25.884;2022-09-29T09:17:44;7.13;;;3.58;;
47523;SDS011;33253;42.144;25.884;2022-09-29T09:20:40;8.32;;;3.95;;
47523;SDS011;33253;42.144;25.884;2022-09-29T09:25:59;7.47;;;3.60;;
47523;SDS011;33253;42.144;25.884;2022-09-29T09:31:29;11.30;;;3.67;;
47523;SDS011;33253;42.144;25.884;2022-09-29T09:36:34;6.80;;;3.65;;
47523;SDS011;33253;42.144;25.884;2022-09-29T09:39:14;7.45;;;3.70;;
47523;SDS011;33253;42.144;25.884;2022-09-29T09:41:47;12.40;;;3.78;;
47523;SDS011;33253;42.144;25.884;2022-09-29T09:44:18;7.90;;;3.78;;
47523;SDS011;33253;42.144;25.884;2022-09-29T09:46:54;10.80;;;3.63;;
47523;SDS011;33253;42.144;25.884;2022-09-29T09:52:12;8.52;;;3.63;;
47523;SDS011;33253;42.144;25.884;2022-09-29T09:54:45;10.55;;;4.10;;
47523;SDS011;33253;42.144;25.884;2022-09-29T09:57:25;6.97;;;3.35;;
47523;SDS011;33253;42.144;25.884;2022-09-29T10:02:42;8.48;;;4.32;;
47523;SDS011;33253;42.144;25.884;2022-09-29T10:05:11;8.40;;;4.28;;
47523;SDS011;33253;42.144;25.884;2022-09-29T10:07:39;6.78;;;3.20;;
47523;SDS011;33253;42.144;25.884;2022-09-29T10:10:06;7.00;;;3.72;;
47523;SDS011;33253;42.144;25.884;2022-09-29T10:12:41;5.55;;;3.33;;
47523;SDS011;33253;42.144;25.884;2022-09-29T10:15:27;9.60;;;3.10;;
47523;SDS011;33253;42.144;25.884;2022-09-29T10:18:05;7.38;;;3.22;;
47523;SDS011;33253;42.144;25.884;2022-09-29T10:20:57;5.22;;;3.08;;
47523;SDS011;33253;42.144;25.884;2022-09-29T10:23:23;4.65;;;2.70;;
47523;SDS011;33253;42.144;25.884;2022-09-29T10:25:51;5.45;;;3.00;;
47523;SDS011;33253;42.144;25.884;2022-09-29T10:28:21;8.45;;;2.88;;
47523;SDS011;33253;42.144;25.884;2022-09-29T10:30:49;8.50;;;2.80;;
47523;SDS011;33253;42.144;25.884;2022-09-29T10:33:16;4.45;;;2.40;;
47523;SDS011;33253;42.144;25.884;2022-09-29T10:35:44;8.02;;;2.90;;
47523;SDS011;33253;42.144;25.884;2022-09-29T10:38:16;5.68;;;2.58;;
47523;SDS011;33253;42.144;25.884;2022-09-29T10:41:04;4.82;;;2.72;;
47523;SDS011;33253;42.144;25.884;2022-09-29T10:43:34;6.80;;;2.78;;
47523;SDS011;33253;42.144;25.884;2022-09-29T10:46:03;3.95;;;2.03;;
47523;SDS011;33253;42.144;25.884;2022-09-29T10:48:30;4.70;;;2.50;;
47523;SDS011;33253;42.144;25.884;2022-09-29T10:51:02;6.10;;;2.67;;
47523;SDS011;33253;42.144;25.884;2022-09-29T10:53:33;6.45;;;2.22;;
47523;SDS011;33253;42.144;25.884;2022-09-29T10:56:00;4.80;;;2.20;;
47523;SDS011;33253;42.144;25.884;2022-09-29T10:58:36;7.30;;;2.67;;
47523;SDS011;33253;42.144;25.884;2022-09-29T11:03:34;4.13;;;2.30;;
47523;SDS011;33253;42.144;25.884;2022-09-29T11:08:29;9.25;;;2.75;;
47523;SDS011;33253;42.144;25.884;2022-09-29T11:11:01;5.28;;;2.20;;
47523;SDS011;33253;42.144;25.884;2022-09-29T11:13:38;7.65;;;2.83;;
47523;SDS011;33253;42.144;25.884;2022-09-29T11:16:05;5.40;;;2.35;;
47523;SDS011;33253;42.144;25.884;2022-09-29T11:18:39;6.60;;;2.38;;
47523;SDS011;33253;42.144;25.884;2022-09-29T11:21:21;6.13;;;2.38;;
47523;SDS011;33253;42.144;25.884;2022-09-29T11:34:59;7.18;;;2.60;;
47523;SDS011;33253;42.144;25.884;2022-09-29T11:43:29;8.60;;;2.88;;
47523;SDS011;33253;42.144;25.884;2022-09-29T11:46:28;4.45;;;2.42;;
47523;SDS011;33253;42.144;25.884;2022-09-29T12:06:52;4.25;;;1.88;;
47523;SDS011;33253;42.144;25.884;2022-09-29T12:17:01;3.47;;;1.73;;
47523;SDS011;33253;42.144;25.884;2022-09-29T12:19:32;1.98;;;1.55;;
47523;SDS011;33253;42.144;25.884;2022-09-29T12:22:03;3.55;;;1.95;;
47523;SDS011;33253;42.144;25.884;2022-09-29T12:24:36;3.20;;;1.83;;
47523;SDS011;33253;42.144;25.884;2022-09-29T12:27:13;2.58;;;1.92;;
47523;SDS011;33253;42.144;25.884;2022-09-29T12:29:48;4.75;;;2.10;;
47523;SDS011;33253;42.144;25.884;2022-09-29T12:32:19;3.72;;;2.30;;
47523;SDS011;33253;42.144;25.884;2022-09-29T12:38:05;3.78;;;2.20;;
47523;SDS011;33253;42.144;25.884;2022-09-29T12:43:49;5.57;;;2.25;;
47523;SDS011;33253;42.144;25.884;2022-09-29T12:46:33;6.57;;;2.50;;
47523;SDS011;33253;42.144;25.884;2022-09-29T12:51:55;3.70;;;1.83;;
47523;SDS011;33253;42.144;25.884;2022-09-29T12:57:00;5.90;;;2.90;;
47523;SDS011;33253;42.144;25.884;2022-09-29T12:59:31;11.88;;;4.28;;
47523;SDS011;33253;42.144;25.884;2022-09-29T13:13:33;4.82;;;2.35;;
47523;SDS011;33253;42.144;25.884;2022-09-29T13:24:36;5.20;;;2.20;;
47523;SDS011;33253;42.144;25.884;2022-09-29T13:29:55;2.80;;;1.90;;
47523;SDS011;33253;42.144;25.884;2022-09-29T13:32:25;2.40;;;1.70;;
47523;SDS011;33253;42.144;25.884;2022-09-29T13:34:54;3.30;;;1.77;;
47523;SDS011;33253;42.144;25.884;2022-09-29T13:37:23;4.93;;;1.80;;
47523;SDS011;33253;42.144;25.884;2022-09-29T13:42:24;5.13;;;2.42;;
47523;SDS011;33253;42.144;25.884;2022-09-29T13:45:13;7.88;;;2.92;;
47523;SDS011;33253;42.144;25.884;2022-09-29T13:47:45;7.93;;;3.28;;
47523;SDS011;33253;42.144;25.884;2022-09-29T13:58:29;5.38;;;2.60;;
47523;SDS011;33253;42.144;25.884;2022-09-29T14:01:36;7.78;;;2.70;;
47523;SDS011;33253;42.144;25.884;2022-09-29T14:07:05;4.88;;;3.08;;
47523;SDS011;33253;42.144;25.884;2022-09-29T14:09:35;6.10;;;2.55;;
47523;SDS011;33253;42.144;25.884;2022-09-29T14:12:09;4.65;;;2.50;;
47523;SDS011;33253;42.144;25.884;2022-09-29T14:14:43;5.53;;;2.65;;
47523;SDS011;33253;42.144;25.884;2022-09-29T14:22:52;8.73;;;3.22;;
47523;SDS011;33253;42.144;25.884;2022-09-29T14:25:31;6.00;;;3.13;;
47523;SDS011;33253;42.144;25.884;2022-09-29T14:28:18;7.85;;;3.13;;
47523;SDS011;33253;42.144;25.884;2022-09-29T14:30:53;6.75;;;3.33;;
47523;SDS011;33253;42.144;25.884;2022-09-29T14:35:53;5.80;;;2.90;;
47523;SDS011;33253;42.144;25.884;2022-09-29T14:38:29;6.30;;;3.13;;
47523;SDS011;33253;42.144;25.884;2022-09-29T14:48:54;8.55;;;2.92;;
47523;SDS011;33253;42.144;25.884;2022-09-29T14:51:54;7.93;;;3.25;;
47523;SDS011;33253;42.144;25.884;2022-09-29T14:54:42;5.55;;;2.90;;
47523;SDS011;33253;42.144;25.884;2022-09-29T15:00:15;8.27;;;3.20;;
47523;SDS011;33253;42.144;25.884;2022-09-29T15:02:47;4.07;;;2.80;;
47523;SDS011;33253;42.144;25.884;2022-09-29T15:07:52;5.18;;;2.88;;
47523;SDS011;33253;42.144;25.884;2022-09-29T15:10:23;7.60;;;2.92;;
47523;SDS011;33253;42.144;25.884;2022-09-29T15:12:49;4.43;;;3.00;;
47523;SDS011;33253;42.144;25.884;2022-09-29T15:15:28;5.65;;;3.10;;
47523;SDS011;33253;42.144;25.884;2022-09-29T15:18:03;11.20;;;3.55;;
47523;SDS011;33253;42.144;25.884;2022-09-29T15:26:13;5.78;;;3.00;;
47523;SDS011;33253;42.144;25.884;2022-09-29T15:28:39;5.75;;;3.20;;
47523;SDS011;33253;42.144;25.884;2022-09-29T15:31:09;5.78;;;3.70;;
47523;SDS011;33253;42.144;25.884;2022-09-29T15:33:38;7.63;;;3.30;;
47523;SDS011;33253;42.144;25.884;2022-09-29T15:36:15;7.28;;;3.45;;
47523;SDS011;33253;42.144;25.884;2022-09-29T15:38:45;5.60;;;3.15;;
47523;SDS011;33253;42.144;25.884;2022-09-29T15:41:14;4.65;;;3.40;;
47523;SDS011;33253;42.144;25.884;2022-09-29T15:43:42;5.05;;;3.63;;
47523;SDS011;33253;42.144;25.884;2022-09-29T15:51:36;4.65;;;3.33;;
47523;SDS011;33253;42.144;25.884;2022-09-29T15:54:03;5.68;;;3.42;;
47523;SDS011;33253;42.144;25.884;2022-09-29T15:56:33;9.30;;;3.75;;
47523;SDS011;33253;42.144;25.884;2022-09-29T15:59:18;6.57;;;3.78;;
47523;SDS011;33253;42.144;25.884;2022-09-29T16:01:44;8.88;;;4.28;;
47523;SDS011;33253;42.144;25.884;2022-09-29T16:04:10;7.65;;;4.13;;
47523;SDS011;33253;42.144;25.884;2022-09-29T16:06:35;8.23;;;4.10;;
47523;SDS011;33253;42.144;25.884;2022-09-29T16:09:04;9.65;;;3.70;;
47523;SDS011;33253;42.144;25.884;2022-09-29T16:11:37;7.28;;;3.60;;
47523;SDS011;33253;42.144;25.884;2022-09-29T16:14:08;8.52;;;4.20;;
47523;SDS011;33253;42.144;25.884;2022-09-29T16:16:40;9.95;;;4.05;;
47523;SDS011;33253;42.144;25.884;2022-09-29T16:19:08;7.97;;;3.60;;
47523;SDS011;33253;42.144;25.884;2022-09-29T16:21:39;8.38;;;3.90;;
47523;SDS011;33253;42.144;25.884;2022-09-29T16:24:16;7.60;;;3.92;;
47523;SDS011;33253;42.144;25.884;2022-09-29T16:26:53;11.60;;;3.70;;
47523;SDS011;33253;42.144;25.884;2022-09-29T16:29:24;9.63;;;3.80;;
47523;SDS011;33253;42.144;25.884;2022-09-29T16:31:51;6.32;;;3.35;;
47523;SDS011;33253;42.144;25.884;2022-09-29T16:36:51;5.60;;;3.92;;
47523;SDS011;33253;42.144;25.884;2022-09-29T16:39:23;4.97;;;3.42;;
47523;SDS011;33253;42.144;25.884;2022-09-29T16:42:13;8.88;;;4.10;;
47523;SDS011;33253;42.144;25.884;2022-09-29T16:44:49;6.82;;;3.40;;
47523;SDS011;33253;42.144;25.884;2022-09-29T16:47:25;10.35;;;3.95;;
47523;SDS011;33253;42.144;25.884;2022-09-29T16:49:57;5.57;;;3.75;;
47523;SDS011;33253;42.144;25.884;2022-09-29T16:52:32;5.22;;;3.50;;
47523;SDS011;33253;42.144;25.884;2022-09-29T17:00:21;8.63;;;3.83;;
47523;SDS011;33253;42.144;25.884;2022-09-29T17:02:53;4.35;;;3.38;;
47523;SDS011;33253;42.144;25.884;2022-09-29T17:05:20;5.50;;;3.38;;
47523;SDS011;33253;42.144;25.884;2022-09-29T17:07:46;12.82;;;4.13;;
47523;SDS011;33253;42.144;25.884;2022-09-29T17:10:15;4.30;;;3.30;;
47523;SDS011;33253;42.144;25.884;2022-09-29T17:12:44;8.23;;;3.55;;
47523;SDS011;33253;42.144;25.884;2022-09-29T17:15:13;6.15;;;3.67;;
47523;SDS011;33253;42.144;25.884;2022-09-29T17:17:41;6.88;;;3.63;;
47523;SDS011;33253;42.144;25.884;2022-09-29T17:20:12;7.25;;;3.65;;
47523;SDS011;33253;42.144;25.884;2022-09-29T17:22:39;6.50;;;3.45;;
47523;SDS011;33253;42.144;25.884;2022-09-29T17:25:05;7.35;;;3.65;;
47523;SDS011;33253;42.144;25.884;2022-09-29T17:27:31;5.53;;;3.58;;
47523;SDS011;33253;42.144;25.884;2022-09-29T17:30:18;6.63;;;4.10;;
47523;SDS011;33253;42.144;25.884;2022-09-29T17:32:47;4.60;;;3.10;;
47523;SDS011;33253;42.144;25.884;2022-09-29T17:35:16;5.88;;;3.40;;
47523;SDS011;33253;42.144;25.884;2022-09-29T17:37:42;8.35;;;4.07;;
47523;SDS011;33253;42.144;25.884;2022-09-29T17:40:23;6.90;;;3.70;;
47523;SDS011;33253;42.144;25.884;2022-09-29T17:42:53;6.80;;;3.90;;
47523;SDS011;33253;42.144;25.884;2022-09-29T17:45:19;6.00;;;3.90;;
47523;SDS011;33253;42.144;25.884;2022-09-29T17:47:47;6.15;;;3.78;;
47523;SDS011;33253;42.144;25.884;2022-09-29T17:52:54;7.47;;;3.90;;
47523;SDS011;33253;42.144;25.884;2022-09-29T17:55:20;5.50;;;3.83;;
47523;SDS011;33253;42.144;25.884;2022-09-29T17:57:47;5.82;;;4.13;;
47523;SDS011;33253;42.144;25.884;2022-09-29T18:00:21;8.13;;;4.10;;
47523;SDS011;33253;42.144;25.884;2022-09-29T18:02:49;7.15;;;4.18;;
47523;SDS011;33253;42.144;25.884;2022-09-29T18:05:16;6.85;;;3.88;;
47523;SDS011;33253;42.144;25.884;2022-09-29T18:07:50;8.15;;;4.10;;
47523;SDS011;33253;42.144;25.884;2022-09-29T18:10:25;8.88;;;4.22;;
47523;SDS011;33253;42.144;25.884;2022-09-29T18:12:53;6.07;;;4.57;;
47523;SDS011;33253;42.144;25.884;2022-09-29T18:15:19;7.13;;;4.35;;
47523;SDS011;33253;42.144;25.884;2022-09-29T18:17:45;8.93;;;4.53;;
47523;SDS011;33253;42.144;25.884;2022-09-29T18:20:14;7.32;;;4.35;;
47523;SDS011;33253;42.144;25.884;2022-09-29T18:22:42;6.78;;;4.50;;